sensor_id;sensor_type;location;lat;lon;timestamp;temperature;humidity
70734;DHT22;58320;48.804;9.252;2022-09-13T00:00:37;14.80;76.20
70734;DHT22;58320;48.804;9.252;2022-09-13T00:03:03;14.70;76.00
70734;DHT22;58320;48.804;9.252;2022-09-13T00:05:29;14.70;76.10
70734;DHT22;58320;48.804;9.252;2022-09-13T00:07:56;14.70;76.50
70734;DHT22;58320;48.804;9.252;2022-09-13T00:10:23;14.60;77.00
70734;DHT22;58320;48.804;9.252;2022-09-13T00:12:50;14.60;76.80
70734;DHT22;58320;48.804;9.252;2022-09-13T00:15:16;14.50;76.80
70734;DHT22;58320;48.804;9.252;2022-09-13T00:17:42;14.50;76.60
70734;DHT22;58320;48.804;9.252;2022-09-13T00:20:08;14.50;76.50
70734;DHT22;58320;48.804;9.252;2022-09-13T00:22:35;14.50;76.60
70734;DHT22;58320;48.804;9.252;2022-09-13T00:25:03;14.50;77.50
70734;DHT22;58320;48.804;9.252;2022-09-13T00:27:31;14.50;77.40
70734;DHT22;58320;48.804;9.252;2022-09-13T00:29:57;14.40;77.40
70734;DHT22;58320;48.804;9.252;2022-09-13T00:32:23;14.40;77.60
70734;DHT22;58320;48.804;9.252;2022-09-13T00:34:48;14.40;77.60
70734;DHT22;58320;48.804;9.252;2022-09-13T00:37:14;14.40;78.00
70734;DHT22;58320;48.804;9.252;2022-09-13T00:39:40;14.40;77.90
70734;DHT22;58320;48.804;9.252;2022-09-13T00:42:11;14.40;77.60
70734;DHT22;58320;48.804;9.252;2022-09-13T00:47:57;14.50;76.90
70734;DHT22;58320;48.804;9.252;2022-09-13T00:50:45;14.50;76.80
70734;DHT22;58320;48.804;9.252;2022-09-13T00:53:27;14.40;77.40
70734;DHT22;58320;48.804;9.252;2022-09-13T00:58:41;14.50;77.00
70734;DHT22;58320;48.804;9.252;2022-09-13T01:01:12;14.60;76.60
70734;DHT22;58320;48.804;9.252;2022-09-13T01:03:39;14.60;76.30
70734;DHT22;58320;48.804;9.252;2022-09-13T01:06:11;14.70;75.60
70734;DHT22;58320;48.804;9.252;2022-09-13T01:08:45;14.80;74.80
70734;DHT22;58320;48.804;9.252;2022-09-13T01:11:47;14.90;74.30
70734;DHT22;58320;48.804;9.252;2022-09-13T01:14:18;15.00;73.90
70734;DHT22;58320;48.804;9.252;2022-09-13T01:16:45;15.00;73.50
70734;DHT22;58320;48.804;9.252;2022-09-13T01:19:11;15.00;73.40
70734;DHT22;58320;48.804;9.252;2022-09-13T01:30:47;15.30;72.20
70734;DHT22;58320;48.804;9.252;2022-09-13T01:36:33;15.30;71.90
70734;DHT22;58320;48.804;9.252;2022-09-13T01:46:01;15.50;71.20
70734;DHT22;58320;48.804;9.252;2022-09-13T01:57:42;15.20;72.30
70734;DHT22;58320;48.804;9.252;2022-09-13T02:00:15;15.00;73.00
70734;DHT22;58320;48.804;9.252;2022-09-13T02:03:00;14.80;73.80
70734;DHT22;58320;48.804;9.252;2022-09-13T02:05:39;14.70;74.80
70734;DHT22;58320;48.804;9.252;2022-09-13T02:08:12;14.50;75.50
70734;DHT22;58320;48.804;9.252;2022-09-13T02:10:45;14.40;76.20
70734;DHT22;58320;48.804;9.252;2022-09-13T02:13:17;14.30;77.10
70734;DHT22;58320;48.804;9.252;2022-09-13T02:15:48;14.20;77.50
70734;DHT22;58320;48.804;9.252;2022-09-13T02:18:23;14.10;78.00
70734;DHT22;58320;48.804;9.252;2022-09-13T02:20:58;14.00;78.30
70734;DHT22;58320;48.804;9.252;2022-09-13T02:23:50;13.90;78.80
70734;DHT22;58320;48.804;9.252;2022-09-13T02:26:20;13.90;79.20
70734;DHT22;58320;48.804;9.252;2022-09-13T02:28:51;13.80;79.60
70734;DHT22;58320;48.804;9.252;2022-09-13T02:31:27;13.70;80.00
70734;DHT22;58320;48.804;9.252;2022-09-13T02:34:02;13.70;80.30
70734;DHT22;58320;48.804;9.252;2022-09-13T02:36:33;13.60;80.90
70734;DHT22;58320;48.804;9.252;2022-09-13T02:39:04;13.60;81.40
70734;DHT22;58320;48.804;9.252;2022-09-13T02:41:34;13.60;81.10
70734;DHT22;58320;48.804;9.252;2022-09-13T02:55:24;13.40;82.40
70734;DHT22;58320;48.804;9.252;2022-09-13T02:58:16;13.40;82.10
70734;DHT22;58320;48.804;9.252;2022-09-13T03:00:45;13.50;82.10
70734;DHT22;58320;48.804;9.252;2022-09-13T03:03:14;13.70;81.30
70734;DHT22;58320;48.804;9.252;2022-09-13T03:05:40;13.90;80.50
70734;DHT22;58320;48.804;9.252;2022-09-13T03:08:09;14.10;79.40
70734;DHT22;58320;48.804;9.252;2022-09-13T03:22:02;14.40;78.30
70734;DHT22;58320;48.804;9.252;2022-09-13T03:24:55;14.50;78.20
70734;DHT22;58320;48.804;9.252;2022-09-13T03:30:36;14.80;77.30
70734;DHT22;58320;48.804;9.252;2022-09-13T03:33:27;14.90;76.40
70734;DHT22;58320;48.804;9.252;2022-09-13T03:39:19;15.20;75.30
70734;DHT22;58320;48.804;9.252;2022-09-13T03:41:51;15.20;75.20
70734;DHT22;58320;48.804;9.252;2022-09-13T03:44:22;15.20;75.00
70734;DHT22;58320;48.804;9.252;2022-09-13T03:46:53;15.20;75.00
70734;DHT22;58320;48.804;9.252;2022-09-13T03:49:24;15.20;75.10
70734;DHT22;58320;48.804;9.252;2022-09-13T03:51:51;15.10;75.50
70734;DHT22;58320;48.804;9.252;2022-09-13T03:54:27;15.00;75.90
70734;DHT22;58320;48.804;9.252;2022-09-13T03:57:18;14.80;76.60
70734;DHT22;58320;48.804;9.252;2022-09-13T04:02:18;14.60;77.60
70734;DHT22;58320;48.804;9.252;2022-09-13T04:04:45;14.50;78.30
70734;DHT22;58320;48.804;9.252;2022-09-13T04:07:16;14.60;78.10
70734;DHT22;58320;48.804;9.252;2022-09-13T04:09:46;14.60;77.80
70734;DHT22;58320;48.804;9.252;2022-09-13T04:12:13;14.80;77.60
70734;DHT22;58320;48.804;9.252;2022-09-13T04:14:41;14.70;77.60
70734;DHT22;58320;48.804;9.252;2022-09-13T04:17:08;14.80;77.60
70734;DHT22;58320;48.804;9.252;2022-09-13T04:19:34;14.80;77.40
70734;DHT22;58320;48.804;9.252;2022-09-13T04:22:01;14.90;77.10
70734;DHT22;58320;48.804;9.252;2022-09-13T04:24:29;14.90;77.00
70734;DHT22;58320;48.804;9.252;2022-09-13T04:26:56;14.90;77.00
70734;DHT22;58320;48.804;9.252;2022-09-13T04:29:23;14.80;77.20
70734;DHT22;58320;48.804;9.252;2022-09-13T04:31:52;14.80;77.80
70734;DHT22;58320;48.804;9.252;2022-09-13T04:34:19;14.70;77.80
70734;DHT22;58320;48.804;9.252;2022-09-13T04:36:47;14.60;78.00
70734;DHT22;58320;48.804;9.252;2022-09-13T04:39:13;14.60;78.40
70734;DHT22;58320;48.804;9.252;2022-09-13T04:41:40;14.50;78.80
70734;DHT22;58320;48.804;9.252;2022-09-13T04:44:09;14.40;78.90
70734;DHT22;58320;48.804;9.252;2022-09-13T04:46:35;14.30;79.20
70734;DHT22;58320;48.804;9.252;2022-09-13T04:49:00;14.20;79.40
70734;DHT22;58320;48.804;9.252;2022-09-13T04:51:26;14.20;79.90
70734;DHT22;58320;48.804;9.252;2022-09-13T04:53:53;14.10;80.00
70734;DHT22;58320;48.804;9.252;2022-09-13T04:56:20;14.10;80.40
70734;DHT22;58320;48.804;9.252;2022-09-13T04:58:51;14.00;81.40
70734;DHT22;58320;48.804;9.252;2022-09-13T05:01:17;14.00;81.50
70734;DHT22;58320;48.804;9.252;2022-09-13T05:03:43;14.00;81.70
70734;DHT22;58320;48.804;9.252;2022-09-13T05:06:14;14.00;81.40
70734;DHT22;58320;48.804;9.252;2022-09-13T05:08:48;14.10;81.10
70734;DHT22;58320;48.804;9.252;2022-09-13T05:11:16;14.00;81.10
70734;DHT22;58320;48.804;9.252;2022-09-13T05:13:42;14.10;81.30
70734;DHT22;58320;48.804;9.252;2022-09-13T05:16:08;14.00;81.30
70734;DHT22;58320;48.804;9.252;2022-09-13T05:18:35;14.00;81.60
70734;DHT22;58320;48.804;9.252;2022-09-13T05:21:02;13.90;81.80
70734;DHT22;58320;48.804;9.252;2022-09-13T05:23:30;13.90;81.90
70734;DHT22;58320;48.804;9.252;2022-09-13T05:25:59;13.90;82.10
70734;DHT22;58320;48.804;9.252;2022-09-13T05:28:27;13.80;82.40
70734;DHT22;58320;48.804;9.252;2022-09-13T05:31:35;13.80;82.50
70734;DHT22;58320;48.804;9.252;2022-09-13T05:34:03;13.80;82.70
70734;DHT22;58320;48.804;9.252;2022-09-13T05:36:31;13.70;82.90
70734;DHT22;58320;48.804;9.252;2022-09-13T05:38:58;13.70;83.00
70734;DHT22;58320;48.804;9.252;2022-09-13T05:41:25;13.70;83.20
70734;DHT22;58320;48.804;9.252;2022-09-13T05:43:50;13.70;83.10
70734;DHT22;58320;48.804;9.252;2022-09-13T05:46:18;13.80;83.40
70734;DHT22;58320;48.804;9.252;2022-09-13T05:48:45;13.80;83.30
70734;DHT22;58320;48.804;9.252;2022-09-13T05:51:21;13.80;83.50
70734;DHT22;58320;48.804;9.252;2022-09-13T05:53:49;13.80;83.30
70734;DHT22;58320;48.804;9.252;2022-09-13T05:56:36;13.80;83.40
70734;DHT22;58320;48.804;9.252;2022-09-13T05:59:02;13.90;83.20
70734;DHT22;58320;48.804;9.252;2022-09-13T06:01:28;13.90;83.20
70734;DHT22;58320;48.804;9.252;2022-09-13T06:03:55;14.00;83.30
70734;DHT22;58320;48.804;9.252;2022-09-13T06:06:23;14.10;82.90
70734;DHT22;58320;48.804;9.252;2022-09-13T06:08:53;14.30;82.50
70734;DHT22;58320;48.804;9.252;2022-09-13T06:11:20;14.40;82.10
70734;DHT22;58320;48.804;9.252;2022-09-13T06:13:46;14.50;81.50
70734;DHT22;58320;48.804;9.252;2022-09-13T06:16:12;14.70;80.70
70734;DHT22;58320;48.804;9.252;2022-09-13T06:18:40;14.80;80.20
70734;DHT22;58320;48.804;9.252;2022-09-13T06:21:15;14.90;79.90
70734;DHT22;58320;48.804;9.252;2022-09-13T06:23:47;15.00;79.70
70734;DHT22;58320;48.804;9.252;2022-09-13T06:26:17;15.00;79.40
70734;DHT22;58320;48.804;9.252;2022-09-13T06:28:48;15.00;79.20
70734;DHT22;58320;48.804;9.252;2022-09-13T06:31:16;15.00;79.40
70734;DHT22;58320;48.804;9.252;2022-09-13T06:33:43;15.00;79.40
70734;DHT22;58320;48.804;9.252;2022-09-13T06:36:10;14.90;79.40
70734;DHT22;58320;48.804;9.252;2022-09-13T06:38:39;14.90;79.80
70734;DHT22;58320;48.804;9.252;2022-09-13T06:41:16;14.90;80.50
70734;DHT22;58320;48.804;9.252;2022-09-13T06:43:43;14.90;80.40
70734;DHT22;58320;48.804;9.252;2022-09-13T06:46:14;14.90;80.70
70734;DHT22;58320;48.804;9.252;2022-09-13T06:48:43;14.90;80.50
70734;DHT22;58320;48.804;9.252;2022-09-13T06:51:15;15.00;80.60
70734;DHT22;58320;48.804;9.252;2022-09-13T06:53:43;15.10;80.20
70734;DHT22;58320;48.804;9.252;2022-09-13T06:58:40;15.40;78.50
70734;DHT22;58320;48.804;9.252;2022-09-13T07:01:14;15.60;78.00
70734;DHT22;58320;48.804;9.252;2022-09-13T07:03:48;15.80;77.00
70734;DHT22;58320;48.804;9.252;2022-09-13T07:06:23;15.90;76.50
70734;DHT22;58320;48.804;9.252;2022-09-13T07:08:52;16.10;75.90
70734;DHT22;58320;48.804;9.252;2022-09-13T07:11:22;16.30;75.40
70734;DHT22;58320;48.804;9.252;2022-09-13T07:13:54;16.60;74.20
70734;DHT22;58320;48.804;9.252;2022-09-13T07:16:27;16.90;73.10
70734;DHT22;58320;48.804;9.252;2022-09-13T07:18:56;17.30;72.20
70734;DHT22;58320;48.804;9.252;2022-09-13T07:21:25;17.60;70.10
70734;DHT22;58320;48.804;9.252;2022-09-13T07:23:52;17.60;70.30
70734;DHT22;58320;48.804;9.252;2022-09-13T07:26:18;17.70;70.40
70734;DHT22;58320;48.804;9.252;2022-09-13T07:28:46;17.70;70.20
70734;DHT22;58320;48.804;9.252;2022-09-13T07:33:56;17.60;70.10
70734;DHT22;58320;48.804;9.252;2022-09-13T07:36:24;17.50;69.80
70734;DHT22;58320;48.804;9.252;2022-09-13T07:38:50;17.40;70.60
70734;DHT22;58320;48.804;9.252;2022-09-13T07:41:19;17.50;70.80
70734;DHT22;58320;48.804;9.252;2022-09-13T07:43:46;17.80;70.60
70734;DHT22;58320;48.804;9.252;2022-09-13T07:46:46;18.00;69.20
70734;DHT22;58320;48.804;9.252;2022-09-13T07:49:09;18.20;67.60
70734;DHT22;58320;48.804;9.252;2022-09-13T07:51:37;18.30;67.40
70734;DHT22;58320;48.804;9.252;2022-09-13T07:54:08;18.60;66.60
70734;DHT22;58320;48.804;9.252;2022-09-13T07:56:37;18.90;66.00
70734;DHT22;58320;48.804;9.252;2022-09-13T07:59:06;19.50;65.00
70734;DHT22;58320;48.804;9.252;2022-09-13T08:01:39;19.90;62.00
70734;DHT22;58320;48.804;9.252;2022-09-13T08:04:12;20.40;61.00
70734;DHT22;58320;48.804;9.252;2022-09-13T08:06:40;20.60;59.70
70734;DHT22;58320;48.804;9.252;2022-09-13T08:09:08;20.80;59.40
70734;DHT22;58320;48.804;9.252;2022-09-13T08:11:40;21.00;58.60
70734;DHT22;58320;48.804;9.252;2022-09-13T08:14:10;21.10;58.70
70734;DHT22;58320;48.804;9.252;2022-09-13T08:16:37;21.30;57.30
70734;DHT22;58320;48.804;9.252;2022-09-13T08:19:04;21.30;57.20
70734;DHT22;58320;48.804;9.252;2022-09-13T08:21:41;21.20;57.40
70734;DHT22;58320;48.804;9.252;2022-09-13T08:24:15;21.20;58.10
70734;DHT22;58320;48.804;9.252;2022-09-13T08:26:43;21.20;57.20
70734;DHT22;58320;48.804;9.252;2022-09-13T08:29:11;21.10;57.10
70734;DHT22;58320;48.804;9.252;2022-09-13T08:31:37;21.10;57.60
70734;DHT22;58320;48.804;9.252;2022-09-13T08:34:03;21.00;58.20
70734;DHT22;58320;48.804;9.252;2022-09-13T08:36:29;20.90;57.70
70734;DHT22;58320;48.804;9.252;2022-09-13T08:38:57;20.70;58.40
70734;DHT22;58320;48.804;9.252;2022-09-13T08:44:41;21.20;57.80
70734;DHT22;58320;48.804;9.252;2022-09-13T08:53:07;22.50;54.30
70734;DHT22;58320;48.804;9.252;2022-09-13T08:58:43;22.60;54.10
70734;DHT22;58320;48.804;9.252;2022-09-13T09:04:47;23.00;53.00
70734;DHT22;58320;48.804;9.252;2022-09-13T09:07:28;23.00;53.00
70734;DHT22;58320;48.804;9.252;2022-09-13T09:10:03;23.10;52.90
70734;DHT22;58320;48.804;9.252;2022-09-13T09:13:04;23.40;52.90
70734;DHT22;58320;48.804;9.252;2022-09-13T09:15:39;23.60;50.60
70734;DHT22;58320;48.804;9.252;2022-09-13T09:18:09;23.80;51.50
70734;DHT22;58320;48.804;9.252;2022-09-13T09:20:40;23.80;50.60
70734;DHT22;58320;48.804;9.252;2022-09-13T09:23:20;23.60;51.20
70734;DHT22;58320;48.804;9.252;2022-09-13T09:28:40;23.70;50.80
70734;DHT22;58320;48.804;9.252;2022-09-13T09:36:22;25.00;49.10
70734;DHT22;58320;48.804;9.252;2022-09-13T09:38:56;25.50;48.30
70734;DHT22;58320;48.804;9.252;2022-09-13T09:41:28;25.90;47.60
70734;DHT22;58320;48.804;9.252;2022-09-13T09:44:20;26.20;46.80
70734;DHT22;58320;48.804;9.252;2022-09-13T09:47:03;26.40;47.00
70734;DHT22;58320;48.804;9.252;2022-09-13T09:49:36;26.60;48.00
70734;DHT22;58320;48.804;9.252;2022-09-13T09:52:30;26.60;47.30
70734;DHT22;58320;48.804;9.252;2022-09-13T09:55:49;26.60;47.20
70734;DHT22;58320;48.804;9.252;2022-09-13T09:58:04;26.50;47.00
70734;DHT22;58320;48.804;9.252;2022-09-13T10:00:49;26.40;46.70
70734;DHT22;58320;48.804;9.252;2022-09-13T10:03:24;26.30;47.50
70734;DHT22;58320;48.804;9.252;2022-09-13T10:06:06;26.20;46.90
70734;DHT22;58320;48.804;9.252;2022-09-13T10:08:35;26.00;46.70
70734;DHT22;58320;48.804;9.252;2022-09-13T10:11:03;25.90;47.80
70734;DHT22;58320;48.804;9.252;2022-09-13T10:13:30;25.80;47.50
70734;DHT22;58320;48.804;9.252;2022-09-13T10:16:04;25.80;47.10
70734;DHT22;58320;48.804;9.252;2022-09-13T10:18:35;25.90;48.30
70734;DHT22;58320;48.804;9.252;2022-09-13T10:23:46;26.00;46.80
70734;DHT22;58320;48.804;9.252;2022-09-13T10:26:18;26.00;46.90
70734;DHT22;58320;48.804;9.252;2022-09-13T10:28:55;26.00;46.60
70734;DHT22;58320;48.804;9.252;2022-09-13T10:31:27;25.90;46.60
70734;DHT22;58320;48.804;9.252;2022-09-13T10:36:33;26.10;46.80
70734;DHT22;58320;48.804;9.252;2022-09-13T10:39:05;26.20;46.40
70734;DHT22;58320;48.804;9.252;2022-09-13T10:41:38;26.30;45.00
70734;DHT22;58320;48.804;9.252;2022-09-13T10:46:54;26.60;45.20
70734;DHT22;58320;48.804;9.252;2022-09-13T10:49:46;26.80;44.50
70734;DHT22;58320;48.804;9.252;2022-09-13T10:52:34;27.00;42.80
70734;DHT22;58320;48.804;9.252;2022-09-13T10:55:27;27.30;43.40
70734;DHT22;58320;48.804;9.252;2022-09-13T10:58:16;27.70;41.80
70734;DHT22;58320;48.804;9.252;2022-09-13T11:01:12;28.00;41.00
70734;DHT22;58320;48.804;9.252;2022-09-13T11:06:35;28.50;39.80
70734;DHT22;58320;48.804;9.252;2022-09-13T11:09:16;28.60;40.10
70734;DHT22;58320;48.804;9.252;2022-09-13T11:28:27;32.20;34.70
70734;DHT22;58320;48.804;9.252;2022-09-13T11:37:09;33.50;32.30
70734;DHT22;58320;48.804;9.252;2022-09-13T11:43:12;33.30;31.50
70734;DHT22;58320;48.804;9.252;2022-09-13T11:46:17;33.00;32.10
70734;DHT22;58320;48.804;9.252;2022-09-13T11:56:58;31.90;32.10
70734;DHT22;58320;48.804;9.252;2022-09-13T11:59:46;32.40;31.50
70734;DHT22;58320;48.804;9.252;2022-09-13T12:05:14;33.40;30.60
70734;DHT22;58320;48.804;9.252;2022-09-13T12:08:01;33.60;28.50
70734;DHT22;58320;48.804;9.252;2022-09-13T12:10:36;33.60;29.00
70734;DHT22;58320;48.804;9.252;2022-09-13T12:13:08;34.10;28.60
70734;DHT22;58320;48.804;9.252;2022-09-13T12:15:41;34.90;27.30
70734;DHT22;58320;48.804;9.252;2022-09-13T12:18:19;35.40;26.30
70734;DHT22;58320;48.804;9.252;2022-09-13T12:20:57;35.70;27.40
70734;DHT22;58320;48.804;9.252;2022-09-13T12:23:32;36.50;27.00
70734;DHT22;58320;48.804;9.252;2022-09-13T12:26:19;37.20;26.20
70734;DHT22;58320;48.804;9.252;2022-09-13T12:29:17;37.40;26.20
70734;DHT22;58320;48.804;9.252;2022-09-13T12:31:46;36.60;25.30
70734;DHT22;58320;48.804;9.252;2022-09-13T12:41:02;32.90;28.10
70734;DHT22;58320;48.804;9.252;2022-09-13T12:49:37;33.40;28.00
70734;DHT22;58320;48.804;9.252;2022-09-13T13:04:36;35.00;26.70
70734;DHT22;58320;48.804;9.252;2022-09-13T13:06:55;35.00;27.00
70734;DHT22;58320;48.804;9.252;2022-09-13T13:11:56;34.30;26.40
70734;DHT22;58320;48.804;9.252;2022-09-13T13:23:18;35.60;25.40
70734;DHT22;58320;48.804;9.252;2022-09-13T13:26:12;34.40;26.80
70734;DHT22;58320;48.804;9.252;2022-09-13T13:29:22;33.70;28.10
70734;DHT22;58320;48.804;9.252;2022-09-13T14:00:34;36.10;26.70
70734;DHT22;58320;48.804;9.252;2022-09-13T14:04:04;36.20;27.30
70734;DHT22;58320;48.804;9.252;2022-09-13T14:06:51;35.70;27.30
70734;DHT22;58320;48.804;9.252;2022-09-13T14:09:48;34.70;28.80
70734;DHT22;58320;48.804;9.252;2022-09-13T14:18:32;32.70;30.20
70734;DHT22;58320;48.804;9.252;2022-09-13T14:21:03;32.80;30.70
70734;DHT22;58320;48.804;9.252;2022-09-13T14:23:30;33.20;30.00
70734;DHT22;58320;48.804;9.252;2022-09-13T14:25:58;33.30;29.80
70734;DHT22;58320;48.804;9.252;2022-09-13T14:28:25;32.80;30.10
70734;DHT22;58320;48.804;9.252;2022-09-13T14:30:57;32.40;30.60
70734;DHT22;58320;48.804;9.252;2022-09-13T14:33:29;32.30;30.80
70734;DHT22;58320;48.804;9.252;2022-09-13T14:36:20;32.20;31.00
70734;DHT22;58320;48.804;9.252;2022-09-13T14:38:52;32.10;30.50
70734;DHT22;58320;48.804;9.252;2022-09-13T14:41:29;31.90;30.60
70734;DHT22;58320;48.804;9.252;2022-09-13T14:44:14;31.80;30.90
70734;DHT22;58320;48.804;9.252;2022-09-13T14:46:53;32.30;30.00
70734;DHT22;58320;48.804;9.252;2022-09-13T14:49:35;33.20;29.70
70734;DHT22;58320;48.804;9.252;2022-09-13T14:52:09;33.90;28.80
70734;DHT22;58320;48.804;9.252;2022-09-13T14:54:44;33.80;28.30
70734;DHT22;58320;48.804;9.252;2022-09-13T14:57:37;33.40;29.20
70734;DHT22;58320;48.804;9.252;2022-09-13T15:00:25;32.90;30.20
70734;DHT22;58320;48.804;9.252;2022-09-13T15:02:52;32.60;30.00
70734;DHT22;58320;48.804;9.252;2022-09-13T15:05:23;32.30;30.50
70734;DHT22;58320;48.804;9.252;2022-09-13T15:07:50;32.10;30.80
70734;DHT22;58320;48.804;9.252;2022-09-13T15:12:51;31.40;31.80
70734;DHT22;58320;48.804;9.252;2022-09-13T15:15:31;31.00;32.10
70734;DHT22;58320;48.804;9.252;2022-09-13T15:23:32;30.10;33.50
70734;DHT22;58320;48.804;9.252;2022-09-13T15:26:22;29.70;33.80
70734;DHT22;58320;48.804;9.252;2022-09-13T15:28:57;29.40;34.40
70734;DHT22;58320;48.804;9.252;2022-09-13T15:31:33;29.20;34.10
70734;DHT22;58320;48.804;9.252;2022-09-13T15:37:00;28.70;34.40
70734;DHT22;58320;48.804;9.252;2022-09-13T15:42:32;28.40;35.20
70734;DHT22;58320;48.804;9.252;2022-09-13T15:44:58;28.20;35.00
70734;DHT22;58320;48.804;9.252;2022-09-13T15:47:24;28.00;35.00
70734;DHT22;58320;48.804;9.252;2022-09-13T15:49:50;27.90;35.00
70734;DHT22;58320;48.804;9.252;2022-09-13T15:52:18;27.80;35.50
70734;DHT22;58320;48.804;9.252;2022-09-13T15:54:47;27.70;36.60
70734;DHT22;58320;48.804;9.252;2022-09-13T15:57:32;27.60;37.90
70734;DHT22;58320;48.804;9.252;2022-09-13T15:59:57;27.40;38.80
70734;DHT22;58320;48.804;9.252;2022-09-13T16:02:25;27.30;39.30
70734;DHT22;58320;48.804;9.252;2022-09-13T16:04:53;27.20;39.50
70734;DHT22;58320;48.804;9.252;2022-09-13T16:07:20;27.10;39.80
70734;DHT22;58320;48.804;9.252;2022-09-13T16:09:46;27.10;40.20
70734;DHT22;58320;48.804;9.252;2022-09-13T16:12:13;27.00;40.50
70734;DHT22;58320;48.804;9.252;2022-09-13T16:14:39;26.90;40.60
70734;DHT22;58320;48.804;9.252;2022-09-13T16:17:09;26.80;40.80
70734;DHT22;58320;48.804;9.252;2022-09-13T16:19:37;26.70;41.10
70734;DHT22;58320;48.804;9.252;2022-09-13T16:22:03;26.60;41.50
70734;DHT22;58320;48.804;9.252;2022-09-13T16:24:28;26.50;41.80
70734;DHT22;58320;48.804;9.252;2022-09-13T16:26:55;26.50;42.00
70734;DHT22;58320;48.804;9.252;2022-09-13T16:29:24;26.40;42.30
70734;DHT22;58320;48.804;9.252;2022-09-13T16:31:50;26.30;42.30
70734;DHT22;58320;48.804;9.252;2022-09-13T16:34:16;26.20;42.50
70734;DHT22;58320;48.804;9.252;2022-09-13T16:36:42;26.10;42.70
70734;DHT22;58320;48.804;9.252;2022-09-13T16:39:08;26.10;43.00
70734;DHT22;58320;48.804;9.252;2022-09-13T16:41:33;26.00;43.30
70734;DHT22;58320;48.804;9.252;2022-09-13T16:43:59;25.90;43.60
70734;DHT22;58320;48.804;9.252;2022-09-13T16:46:26;25.80;43.80
70734;DHT22;58320;48.804;9.252;2022-09-13T16:48:53;25.80;44.00
70734;DHT22;58320;48.804;9.252;2022-09-13T16:51:20;25.70;44.10
70734;DHT22;58320;48.804;9.252;2022-09-13T16:53:49;25.60;43.90
70734;DHT22;58320;48.804;9.252;2022-09-13T16:56:17;25.50;43.70
70734;DHT22;58320;48.804;9.252;2022-09-13T16:58:44;25.40;43.70
70734;DHT22;58320;48.804;9.252;2022-09-13T17:01:16;25.40;43.40
70734;DHT22;58320;48.804;9.252;2022-09-13T17:03:45;25.30;43.10
70734;DHT22;58320;48.804;9.252;2022-09-13T17:06:13;25.20;43.20
70734;DHT22;58320;48.804;9.252;2022-09-13T17:08:45;25.10;43.30
70734;DHT22;58320;48.804;9.252;2022-09-13T17:11:21;25.00;43.30
70734;DHT22;58320;48.804;9.252;2022-09-13T17:13:49;24.90;43.40
70734;DHT22;58320;48.804;9.252;2022-09-13T17:18:57;24.70;43.60
70734;DHT22;58320;48.804;9.252;2022-09-13T17:21:24;24.60;43.70
70734;DHT22;58320;48.804;9.252;2022-09-13T17:23:50;24.60;43.80
70734;DHT22;58320;48.804;9.252;2022-09-13T17:26:16;24.50;43.90
70734;DHT22;58320;48.804;9.252;2022-09-13T17:28:42;24.40;44.00
70734;DHT22;58320;48.804;9.252;2022-09-13T17:31:08;24.30;44.20
70734;DHT22;58320;48.804;9.252;2022-09-13T17:33:34;24.20;44.40
70734;DHT22;58320;48.804;9.252;2022-09-13T17:36:02;24.10;44.60
70734;DHT22;58320;48.804;9.252;2022-09-13T17:38:29;24.00;44.90
70734;DHT22;58320;48.804;9.252;2022-09-13T17:41:03;24.00;44.90
70734;DHT22;58320;48.804;9.252;2022-09-13T17:43:32;23.90;45.10
70734;DHT22;58320;48.804;9.252;2022-09-13T17:46:21;23.80;45.10
70734;DHT22;58320;48.804;9.252;2022-09-13T17:48:49;23.80;45.40
70734;DHT22;58320;48.804;9.252;2022-09-13T17:51:21;23.70;45.50
70734;DHT22;58320;48.804;9.252;2022-09-13T17:53:57;23.70;45.80
70734;DHT22;58320;48.804;9.252;2022-09-13T17:56:32;23.60;46.00
70734;DHT22;58320;48.804;9.252;2022-09-13T17:59:15;23.60;46.10
70734;DHT22;58320;48.804;9.252;2022-09-13T18:01:44;23.50;46.30
70734;DHT22;58320;48.804;9.252;2022-09-13T18:04:13;23.40;46.80
70734;DHT22;58320;48.804;9.252;2022-09-13T18:06:39;23.40;46.80
70734;DHT22;58320;48.804;9.252;2022-09-13T18:09:07;23.30;47.00
70734;DHT22;58320;48.804;9.252;2022-09-13T18:11:35;23.20;47.30
70734;DHT22;58320;48.804;9.252;2022-09-13T18:14:01;23.10;47.50
70734;DHT22;58320;48.804;9.252;2022-09-13T18:16:28;23.00;47.80
70734;DHT22;58320;48.804;9.252;2022-09-13T18:18:55;23.00;48.30
70734;DHT22;58320;48.804;9.252;2022-09-13T18:21:23;22.80;48.80
70734;DHT22;58320;48.804;9.252;2022-09-13T18:23:51;22.70;49.20
70734;DHT22;58320;48.804;9.252;2022-09-13T18:26:21;22.60;49.70
70734;DHT22;58320;48.804;9.252;2022-09-13T18:28:55;22.50;50.00
70734;DHT22;58320;48.804;9.252;2022-09-13T18:31:24;22.40;50.50
70734;DHT22;58320;48.804;9.252;2022-09-13T18:33:54;22.30;51.10
70734;DHT22;58320;48.804;9.252;2022-09-13T18:36:22;22.30;51.70
70734;DHT22;58320;48.804;9.252;2022-09-13T18:38:49;22.20;52.20
70734;DHT22;58320;48.804;9.252;2022-09-13T18:41:33;22.20;52.60
70734;DHT22;58320;48.804;9.252;2022-09-13T18:44:01;22.20;52.70
70734;DHT22;58320;48.804;9.252;2022-09-13T18:46:29;22.20;52.50
70734;DHT22;58320;48.804;9.252;2022-09-13T18:48:56;22.20;52.80
70734;DHT22;58320;48.804;9.252;2022-09-13T18:51:32;22.10;53.00
70734;DHT22;58320;48.804;9.252;2022-09-13T18:54:00;22.10;53.20
70734;DHT22;58320;48.804;9.252;2022-09-13T18:56:27;22.00;53.30
70734;DHT22;58320;48.804;9.252;2022-09-13T18:58:54;22.00;53.60
70734;DHT22;58320;48.804;9.252;2022-09-13T19:01:24;22.00;53.80
70734;DHT22;58320;48.804;9.252;2022-09-13T19:03:53;22.00;53.90
70734;DHT22;58320;48.804;9.252;2022-09-13T19:06:26;22.00;53.80
70734;DHT22;58320;48.804;9.252;2022-09-13T19:09:00;21.90;53.80
70734;DHT22;58320;48.804;9.252;2022-09-13T19:11:30;21.90;53.70
70734;DHT22;58320;48.804;9.252;2022-09-13T19:13:57;21.90;54.30
70734;DHT22;58320;48.804;9.252;2022-09-13T19:16:22;22.00;54.30
70734;DHT22;58320;48.804;9.252;2022-09-13T19:18:50;21.90;54.40
70734;DHT22;58320;48.804;9.252;2022-09-13T19:21:19;21.90;54.40
70734;DHT22;58320;48.804;9.252;2022-09-13T19:23:47;21.80;54.40
70734;DHT22;58320;48.804;9.252;2022-09-13T19:26:35;21.70;54.60
70734;DHT22;58320;48.804;9.252;2022-09-13T19:29:09;21.70;54.80
70734;DHT22;58320;48.804;9.252;2022-09-13T19:31:38;21.60;55.10
70734;DHT22;58320;48.804;9.252;2022-09-13T19:34:06;21.60;55.50
70734;DHT22;58320;48.804;9.252;2022-09-13T19:36:35;21.50;55.70
70734;DHT22;58320;48.804;9.252;2022-09-13T19:39:03;21.50;54.90
70734;DHT22;58320;48.804;9.252;2022-09-13T19:41:30;21.50;54.70
70734;DHT22;58320;48.804;9.252;2022-09-13T19:43:58;21.50;54.70
70734;DHT22;58320;48.804;9.252;2022-09-13T19:46:27;21.50;54.40
70734;DHT22;58320;48.804;9.252;2022-09-13T19:48:56;21.50;54.30
70734;DHT22;58320;48.804;9.252;2022-09-13T19:51:45;21.50;54.10